Time;durP1;ratioP1;P1;durP2;ratioP2;P2;SDS_P1;SDS_P2;PMS_P1;PMS_P2;Temp;Humidity;BMP_temperature;BMP_pressure;BME280_temperature;BME280_humidity;BME280_pressure;Samples;Min_cycle;Max_cycle;Signal;HPM_P1;HPM_P2
2022/07/23 00:00:44;;;;;;;8.13;4.03;;;;;;;;;;5050589;28;20124;-68
2022/07/23 00:03:10;;;;;;;6.95;4.03;;;;;;;;;;5050523;28;20028;-67
2022/07/23 00:05:36;;;;;;;7.45;4.13;;;;;;;;;;5050942;28;20033;-69
2022/07/23 00:08:02;;;;;;;10.80;4.60;;;;;;;;;;5050417;28;20538;-69
2022/07/23 00:10:28;;;;;;;10.77;4.60;;;;;;;;;;5050697;28;20037;-69
2022/07/23 00:12:54;;;;;;;7.13;4.63;;;;;;;;;;5050891;28;20041;-69
2022/07/23 00:15:20;;;;;;;7.95;4.63;;;;;;;;;;5051100;28;20042;-69
2022/07/23 00:17:46;;;;;;;9.65;5.75;;;;;;;;;;5050891;28;20064;-69
2022/07/23 00:20:12;;;;;;;11.43;5.57;;;;;;;;;;5051225;28;20371;-68
2022/07/23 00:22:46;;;;;;;13.77;6.35;;;;;;;;;;5050203;28;20044;-69
2022/07/23 00:25:12;;;;;;;11.98;6.45;;;;;;;;;;5051600;28;20482;-68
2022/07/23 00:27:38;;;;;;;11.20;6.65;;;;;;;;;;5033303;28;20025;-69
2022/07/23 00:30:04;;;;;;;18.95;6.57;;;;;;;;;;5050614;28;20486;-67
2022/07/23 00:32:30;;;;;;;13.02;6.47;;;;;;;;;;5051429;28;20067;-68
2022/07/23 00:34:56;;;;;;;9.27;6.38;;;;;;;;;;5052468;28;20021;-69
2022/07/23 00:37:22;;;;;;;12.38;6.20;;;;;;;;;;5053047;28;20072;-67
2022/07/23 00:39:48;;;;;;;16.00;6.85;;;;;;;;;;5051083;28;20025;-69
2022/07/23 00:42:14;;;;;;;11.93;6.68;;;;;;;;;;5051328;28;20021;-69
2022/07/23 00:44:40;;;;;;;11.98;6.38;;;;;;;;;;5052692;28;20097;-68
2022/07/23 00:47:06;;;;;;;12.68;6.72;;;;;;;;;;5052099;28;20055;-67
2022/07/23 00:49:33;;;;;;;13.15;6.97;;;;;;;;;;5052013;28;20064;-68
2022/07/23 00:52:01;;;;;;;12.45;7.35;;;;;;;;;;5052945;28;20124;-68
2022/07/23 00:54:27;;;;;;;12.00;7.35;;;;;;;;;;5054417;28;20032;-68
2022/07/23 00:56:54;;;;;;;12.98;7.63;;;;;;;;;;5053297;28;20119;-69
2022/07/23 00:59:20;;;;;;;14.30;8.90;;;;;;;;;;5052378;28;20491;-69
2022/07/23 01:01:48;;;;;;;12.48;8.23;;;;;;;;;;5053451;28;20044;-68
2022/07/23 01:04:15;;;;;;;18.20;8.02;;;;;;;;;;5053424;28;20029;-67
2022/07/23 01:06:41;;;;;;;17.30;8.60;;;;;;;;;;5052628;28;20171;-68
2022/07/23 01:09:07;;;;;;;13.52;8.30;;;;;;;;;;5053110;28;20029;-69
2022/07/23 01:11:35;;;;;;;18.33;8.90;;;;;;;;;;5053377;28;20055;-68
2022/07/23 01:14:08;;;;;;;11.98;8.60;;;;;;;;;;5052950;28;20025;-69
2022/07/23 01:16:34;;;;;;;15.82;8.68;;;;;;;;;;5052120;28;20067;-68
2022/07/23 01:19:00;;;;;;;17.67;9.38;;;;;;;;;;5051887;28;20040;-68
2022/07/23 01:21:26;;;;;;;18.45;8.98;;;;;;;;;;5051862;28;20096;-68
2022/07/23 01:23:52;;;;;;;17.45;8.40;;;;;;;;;;5051125;28;20048;-68
2022/07/23 01:26:18;;;;;;;14.98;9.32;;;;;;;;;;5050148;28;20516;-68
2022/07/23 01:28:44;;;;;;;15.70;9.27;;;;;;;;;;5050003;28;20037;-68
2022/07/23 01:31:10;;;;;;;21.33;9.68;;;;;;;;;;5049602;28;20414;-68
2022/07/23 01:33:36;;;;;;;18.58;9.48;;;;;;;;;;5049016;28;20065;-69
2022/07/23 01:36:02;;;;;;;20.60;9.75;;;;;;;;;;5050066;28;20037;-69
2022/07/23 01:38:28;;;;;;;16.98;9.90;;;;;;;;;;5050386;28;20048;-69
2022/07/23 01:40:54;;;;;;;20.83;10.02;;;;;;;;;;5053597;28;20471;-69
2022/07/23 01:43:20;;;;;;;16.90;10.00;;;;;;;;;;5053812;28;20029;-68
2022/07/23 01:45:46;;;;;;;18.33;9.82;;;;;;;;;;5052996;28;20110;-69
2022/07/23 01:48:12;;;;;;;17.25;10.27;;;;;;;;;;5053261;28;20178;-69
2022/07/23 01:50:38;;;;;;;19.38;10.55;;;;;;;;;;5053440;28;20439;-69
2022/07/23 01:53:04;;;;;;;19.13;10.57;;;;;;;;;;5053497;28;20549;-69
2022/07/23 01:55:30;;;;;;;14.80;9.98;;;;;;;;;;5053446;28;20060;-69
2022/07/23 01:57:56;;;;;;;21.38;11.10;;;;;;;;;;5053862;28;20033;-69
2022/07/23 02:00:22;;;;;;;20.23;10.90;;;;;;;;;;5053019;28;20087;-69
2022/07/23 02:02:48;;;;;;;24.17;11.68;;;;;;;;;;5052927;28;20029;-69
2022/07/23 02:05:14;;;;;;;20.85;11.30;;;;;;;;;;5052993;28;20352;-69
2022/07/23 02:07:40;;;;;;;20.52;11.18;;;;;;;;;;5053284;28;20025;-68
2022/07/23 02:10:07;;;;;;;23.13;13.63;;;;;;;;;;5052785;28;20095;-68
2022/07/23 02:12:33;;;;;;;25.10;13.30;;;;;;;;;;5052873;28;20025;-69
2022/07/23 02:14:59;;;;;;;22.55;11.52;;;;;;;;;;5053257;28;20029;-69
2022/07/23 02:17:25;;;;;;;24.00;12.38;;;;;;;;;;5068738;28;20029;-68
2022/07/23 02:19:51;;;;;;;23.40;11.48;;;;;;;;;;5053543;28;20383;-68
2022/07/23 02:22:17;;;;;;;23.20;12.15;;;;;;;;;;5053017;28;20028;-68
2022/07/23 02:24:43;;;;;;;19.05;10.85;;;;;;;;;;5053857;28;20064;-68
2022/07/23 02:27:09;;;;;;;23.63;11.60;;;;;;;;;;5054321;28;20124;-68
2022/07/23 02:29:35;;;;;;;25.08;12.52;;;;;;;;;;5054306;28;20506;-68
2022/07/23 02:32:01;;;;;;;18.80;11.50;;;;;;;;;;5069508;28;20033;-68
2022/07/23 02:34:27;;;;;;;24.95;12.02;;;;;;;;;;5055650;28;20040;-68
2022/07/23 02:36:53;;;;;;;20.60;11.27;;;;;;;;;;5055468;28;20060;-68
2022/07/23 02:39:19;;;;;;;19.55;10.02;;;;;;;;;;5054543;28;20025;-69
2022/07/23 02:41:45;;;;;;;19.20;9.40;;;;;;;;;;5070717;28;20025;-68
2022/07/23 02:44:11;;;;;;;16.40;10.90;;;;;;;;;;5055293;28;20478;-68
2022/07/23 02:46:37;;;;;;;20.58;10.60;;;;;;;;;;5054997;28;20123;-68
2022/07/23 02:49:04;;;;;;;22.65;11.50;;;;;;;;;;5054760;28;20347;-68
2022/07/23 02:51:30;;;;;;;23.70;11.82;;;;;;;;;;5054675;28;20040;-68
2022/07/23 02:53:56;;;;;;;20.83;10.68;;;;;;;;;;5055977;28;20037;-68
2022/07/23 02:56:23;;;;;;;16.00;10.10;;;;;;;;;;5053604;28;20367;-68
2022/07/23 02:58:49;;;;;;;25.08;11.48;;;;;;;;;;5055345;28;20488;-69
2022/07/23 03:01:15;;;;;;;22.77;12.30;;;;;;;;;;5054881;28;20128;-68
2022/07/23 03:03:41;;;;;;;28.30;12.85;;;;;;;;;;5053795;28;20078;-67
2022/07/23 03:06:07;;;;;;;24.45;12.70;;;;;;;;;;5053641;28;20128;-68
2022/07/23 03:08:33;;;;;;;27.25;12.18;;;;;;;;;;5052618;28;20573;-68
2022/07/23 03:10:59;;;;;;;22.77;12.50;;;;;;;;;;5052308;28;20129;-69
2022/07/23 03:13:25;;;;;;;27.67;13.48;;;;;;;;;;5052302;28;20167;-68
2022/07/23 03:15:51;;;;;;;27.40;13.38;;;;;;;;;;5051730;28;20033;-68
2022/07/23 03:18:17;;;;;;;35.65;13.27;;;;;;;;;;5052895;28;20029;-68
2022/07/23 03:20:43;;;;;;;22.17;11.65;;;;;;;;;;5051100;28;20418;-68
2022/07/23 03:23:09;;;;;;;23.80;11.98;;;;;;;;;;5051686;28;20025;-68
2022/07/23 03:25:35;;;;;;;20.70;12.60;;;;;;;;;;5050802;28;20036;-68
2022/07/23 03:28:01;;;;;;;28.75;12.23;;;;;;;;;;5051405;28;20506;-68
2022/07/23 03:30:27;;;;;;;21.45;11.25;;;;;;;;;;5051769;28;20037;-69
2022/07/23 03:32:53;;;;;;;23.77;11.40;;;;;;;;;;5049975;28;20025;-69
2022/07/23 03:35:19;;;;;;;24.38;12.38;;;;;;;;;;5051141;28;20039;-69
2022/07/23 03:37:45;;;;;;;22.13;11.88;;;;;;;;;;5051248;28;20036;-68
2022/07/23 03:40:11;;;;;;;22.08;11.93;;;;;;;;;;5051006;28;20051;-68
2022/07/23 03:42:39;;;;;;;22.88;11.50;;;;;;;;;;5051171;28;20071;-68
2022/07/23 03:45:05;;;;;;;18.85;11.05;;;;;;;;;;5049840;28;20040;-69
2022/07/23 03:47:31;;;;;;;25.73;11.05;;;;;;;;;;5051401;28;20179;-69
2022/07/23 03:49:58;;;;;;;20.77;10.40;;;;;;;;;;5051175;28;20406;-69
2022/07/23 03:52:24;;;;;;;18.17;8.70;;;;;;;;;;5051148;28;20029;-68
2022/07/23 03:54:50;;;;;;;16.40;8.25;;;;;;;;;;5051760;28;20052;-69
2022/07/23 03:57:16;;;;;;;12.13;7.82;;;;;;;;;;5052449;28;20024;-68
2022/07/23 03:59:42;;;;;;;13.98;7.75;;;;;;;;;;5051626;28;20048;-68
2022/07/23 04:02:07;;;;;;;18.48;9.93;;;;;;;;;;5052203;28;20031;-68
2022/07/23 04:04:33;;;;;;;16.92;9.60;;;;;;;;;;5052442;28;20398;-67
2022/07/23 04:07:01;;;;;;;18.13;9.02;;;;;;;;;;5053094;28;20029;-68
2022/07/23 04:09:27;;;;;;;20.40;10.52;;;;;;;;;;5053886;28;20061;-69
2022/07/23 04:11:53;;;;;;;18.98;9.65;;;;;;;;;;5053669;28;20356;-69
2022/07/23 04:14:19;;;;;;;20.80;8.52;;;;;;;;;;5053581;28;20043;-69
2022/07/23 04:16:45;;;;;;;21.15;9.18;;;;;;;;;;5052910;28;20087;-68
2022/07/23 04:19:11;;;;;;;16.38;8.48;;;;;;;;;;5055212;28;20028;-69
2022/07/23 04:21:37;;;;;;;15.25;8.43;;;;;;;;;;5051923;28;20029;-68
2022/07/23 04:24:03;;;;;;;14.55;8.25;;;;;;;;;;5054076;28;20021;-69
2022/07/23 04:26:29;;;;;;;12.57;7.70;;;;;;;;;;5053295;28;20041;-68
2022/07/23 04:28:55;;;;;;;13.25;7.40;;;;;;;;;;5053702;28;20033;-68
2022/07/23 04:31:21;;;;;;;13.77;7.78;;;;;;;;;;5053568;28;20037;-69
2022/07/23 04:33:47;;;;;;;10.95;6.75;;;;;;;;;;5053600;28;20078;-69
2022/07/23 04:36:13;;;;;;;11.27;5.72;;;;;;;;;;5052494;28;20033;-68
2022/07/23 04:38:39;;;;;;;10.77;6.30;;;;;;;;;;5051819;28;20029;-68
2022/07/23 04:41:05;;;;;;;11.10;5.75;;;;;;;;;;5052083;28;20310;-68
2022/07/23 04:43:31;;;;;;;6.43;4.32;;;;;;;;;;5050831;28;20017;-68
2022/07/23 04:45:57;;;;;;;6.50;5.10;;;;;;;;;;5050928;28;20130;-69
2022/07/23 04:48:23;;;;;;;8.75;4.82;;;;;;;;;;5050317;28;20204;-69
2022/07/23 04:50:49;;;;;;;4.60;3.30;;;;;;;;;;5048660;28;20125;-69
2022/07/23 04:53:15;;;;;;;4.35;3.42;;;;;;;;;;5049984;28;20061;-69
2022/07/23 04:55:41;;;;;;;8.38;4.22;;;;;;;;;;5050260;28;20033;-69
2022/07/23 04:58:07;;;;;;;5.60;3.67;;;;;;;;;;5049968;28;20112;-69
2022/07/23 05:00:33;;;;;;;5.53;3.97;;;;;;;;;;5049666;28;20080;-68
2022/07/23 05:02:59;;;;;;;5.88;3.72;;;;;;;;;;5049643;28;20043;-68
2022/07/23 05:05:25;;;;;;;5.03;3.72;;;;;;;;;;5050253;28;20128;-69
2022/07/23 05:07:51;;;;;;;7.97;3.60;;;;;;;;;;5048877;28;20056;-69
2022/07/23 05:10:18;;;;;;;7.15;4.22;;;;;;;;;;5049764;28;20021;-69
2022/07/23 05:12:44;;;;;;;6.43;3.85;;;;;;;;;;5031779;28;20032;-69
2022/07/23 05:15:10;;;;;;;10.88;4.50;;;;;;;;;;5055193;28;20166;-68
2022/07/23 05:17:36;;;;;;;6.93;3.63;;;;;;;;;;5056213;28;20501;-68
2022/07/23 05:20:02;;;;;;;11.43;4.10;;;;;;;;;;5056059;28;20040;-68
2022/07/23 05:22:28;;;;;;;5.53;3.75;;;;;;;;;;5056754;28;20107;-68
2022/07/23 05:24:54;;;;;;;5.88;3.50;;;;;;;;;;5057002;28;20094;-69
2022/07/23 05:27:20;;;;;;;8.48;3.25;;;;;;;;;;5056189;28;20056;-69
2022/07/23 05:29:46;;;;;;;10.70;3.65;;;;;;;;;;5057456;28;20120;-68
2022/07/23 05:32:12;;;;;;;6.95;2.80;;;;;;;;;;5058101;28;20116;-69
2022/07/23 05:34:38;;;;;;;7.95;3.50;;;;;;;;;;5059025;28;20043;-69
2022/07/23 05:37:04;;;;;;;7.57;3.22;;;;;;;;;;5059354;28;20036;-70
2022/07/23 05:39:30;;;;;;;6.57;3.25;;;;;;;;;;5058698;28;20044;-69
2022/07/23 05:41:56;;;;;;;6.13;3.35;;;;;;;;;;5058446;28;20029;-67
2022/07/23 05:44:22;;;;;;;7.80;3.78;;;;;;;;;;5061129;28;20033;-69
2022/07/23 05:46:49;;;;;;;9.38;3.90;;;;;;;;;;5061058;28;20044;-68
2022/07/23 05:49:15;;;;;;;6.43;3.47;;;;;;;;;;5061119;28;20033;-69
2022/07/23 05:51:41;;;;;;;9.00;3.17;;;;;;;;;;5061470;28;20044;-69
2022/07/23 05:54:08;;;;;;;7.22;3.83;;;;;;;;;;5061296;28;20036;-68
2022/07/23 05:56:34;;;;;;;7.88;2.90;;;;;;;;;;5060560;28;20479;-68
2022/07/23 05:59:00;;;;;;;6.43;2.70;;;;;;;;;;5061083;28;20389;-68
2022/07/23 06:01:26;;;;;;;5.93;1.88;;;;;;;;;;5061535;28;20049;-68
2022/07/23 06:03:52;;;;;;;5.38;2.08;;;;;;;;;;5060498;28;20546;-68
2022/07/23 06:06:18;;;;;;;7.55;2.45;;;;;;;;;;5059122;28;20033;-69
2022/07/23 06:08:44;;;;;;;3.88;1.50;;;;;;;;;;5059030;28;20025;-69
2022/07/23 06:11:11;;;;;;;3.80;1.60;;;;;;;;;;5039453;28;20611;-69
2022/07/23 06:13:37;;;;;;;5.88;1.40;;;;;;;;;;5056468;28;20074;-69
2022/07/23 06:16:03;;;;;;;4.68;1.55;;;;;;;;;;5055734;28;20172;-69
2022/07/23 06:18:29;;;;;;;5.45;1.50;;;;;;;;;;5056298;28;20044;-68
2022/07/23 06:20:55;;;;;;;4.32;1.50;;;;;;;;;;5054954;28;20029;-70
2022/07/23 06:23:21;;;;;;;6.53;1.33;;;;;;;;;;5055876;28;20025;-69
2022/07/23 06:25:47;;;;;;;6.80;1.48;;;;;;;;;;5053141;28;20504;-69
2022/07/23 06:28:13;;;;;;;5.45;1.23;;;;;;;;;;5051291;28;20131;-69
2022/07/23 06:30:39;;;;;;;5.78;1.33;;;;;;;;;;5051209;28;20172;-68
2022/07/23 06:33:05;;;;;;;8.82;1.60;;;;;;;;;;5052696;28;20029;-69
2022/07/23 06:35:33;;;;;;;5.93;1.70;;;;;;;;;;5052209;28;20506;-69
2022/07/23 06:37:59;;;;;;;3.65;1.02;;;;;;;;;;5052540;28;20057;-69
2022/07/23 06:40:25;;;;;;;5.18;1.33;;;;;;;;;;5051327;28;20025;-69
2022/07/23 06:42:51;;;;;;;3.55;1.15;;;;;;;;;;5052351;28;20032;-70
2022/07/23 06:45:18;;;;;;;5.25;1.50;;;;;;;;;;5052284;28;20025;-69
2022/07/23 06:47:44;;;;;;;4.45;1.17;;;;;;;;;;5052490;28;20079;-68
2022/07/23 06:50:10;;;;;;;6.38;1.42;;;;;;;;;;5052428;28;20406;-68
2022/07/23 06:52:36;;;;;;;7.05;1.27;;;;;;;;;;5052406;28;20017;-68
2022/07/23 06:55:02;;;;;;;2.33;0.95;;;;;;;;;;5052012;28;20052;-68
2022/07/23 06:57:28;;;;;;;4.05;1.42;;;;;;;;;;5052901;28;20040;-68
2022/07/23 06:59:54;;;;;;;3.78;1.48;;;;;;;;;;5052364;28;20047;-69
2022/07/23 07:02:20;;;;;;;5.85;1.15;;;;;;;;;;5053211;28;20497;-69
2022/07/23 07:04:46;;;;;;;6.53;1.30;;;;;;;;;;5053593;28;20036;-69
2022/07/23 07:07:12;;;;;;;3.70;1.10;;;;;;;;;;5054148;28;20390;-69
2022/07/23 07:09:38;;;;;;;8.15;1.52;;;;;;;;;;5053026;28;20036;-69
2022/07/23 07:12:04;;;;;;;5.07;1.27;;;;;;;;;;5055377;28;20115;-69
2022/07/23 07:14:31;;;;;;;9.73;1.58;;;;;;;;;;5055752;28;20025;-69
2022/07/23 07:16:57;;;;;;;4.50;1.30;;;;;;;;;;5055743;28;20125;-69
2022/07/23 07:19:23;;;;;;;5.38;1.30;;;;;;;;;;5056116;28;20487;-69
2022/07/23 07:21:49;;;;;;;4.85;1.00;;;;;;;;;;5056600;28;20025;-69
2022/07/23 07:24:15;;;;;;;3.97;1.30;;;;;;;;;;5056032;28;20479;-71
2022/07/23 07:26:41;;;;;;;4.05;1.30;;;;;;;;;;5056014;28;20087;-69
2022/07/23 07:29:07;;;;;;;4.40;1.23;;;;;;;;;;5057359;28;20390;-69
2022/07/23 07:31:33;;;;;;;3.15;1.10;;;;;;;;;;5057542;28;20021;-69
2022/07/23 07:33:59;;;;;;;4.68;1.50;;;;;;;;;;5056278;28;20021;-68
2022/07/23 07:36:25;;;;;;;3.25;1.05;;;;;;;;;;5056233;28;20163;-69
2022/07/23 07:38:51;;;;;;;2.97;1.05;;;;;;;;;;5056343;28;20029;-69
2022/07/23 07:41:22;;;;;;;6.38;1.30;;;;;;;;;;5055018;28;20037;-69
2022/07/23 07:43:48;;;;;;;5.60;1.13;;;;;;;;;;5054254;28;20594;-73
2022/07/23 07:46:14;;;;;;;5.85;1.20;;;;;;;;;;5053052;28;20033;-71
2022/07/23 07:48:40;;;;;;;4.38;1.23;;;;;;;;;;5052877;28;20033;-69
2022/07/23 07:51:06;;;;;;;4.75;1.00;;;;;;;;;;5051354;28;20033;-69
2022/07/23 07:53:32;;;;;;;3.15;1.10;;;;;;;;;;5050996;28;20504;-69
2022/07/23 07:55:58;;;;;;;7.90;1.38;;;;;;;;;;5050834;28;20124;-69
2022/07/23 07:58:24;;;;;;;11.18;1.50;;;;;;;;;;5051359;28;20049;-69
2022/07/23 08:00:51;;;;;;;4.93;1.20;;;;;;;;;;5050923;28;20060;-70
2022/07/23 08:03:17;;;;;;;4.20;0.93;;;;;;;;;;5050882;28;20486;-69
2022/07/23 08:05:43;;;;;;;3.22;1.00;;;;;;;;;;5050537;28;20513;-70
2022/07/23 08:08:14;;;;;;;2.72;1.25;;;;;;;;;;5050477;28;20033;-69
2022/07/23 08:10:40;;;;;;;2.50;1.00;;;;;;;;;;5051003;28;20045;-69
2022/07/23 08:13:06;;;;;;;3.30;1.00;;;;;;;;;;5050663;28;20025;-69
2022/07/23 08:15:32;;;;;;;3.42;1.30;;;;;;;;;;5050386;28;20021;-68
2022/07/23 08:17:59;;;;;;;6.22;1.55;;;;;;;;;;5050475;28;20044;-69
2022/07/23 08:20:26;;;;;;;3.03;0.90;;;;;;;;;;5050691;28;20044;-69
2022/07/23 08:22:53;;;;;;;9.63;1.10;;;;;;;;;;5049428;28;20036;-69
2022/07/23 08:25:24;;;;;;;7.45;1.10;;;;;;;;;;5049981;28;20064;-69
2022/07/23 08:27:51;;;;;;;5.95;1.27;;;;;;;;;;5051061;28;20545;-69
2022/07/23 08:30:18;;;;;;;4.47;1.00;;;;;;;;;;5051167;28;20035;-69
2022/07/23 08:32:50;;;;;;;11.50;0.95;;;;;;;;;;5050731;28;20032;-70
2022/07/23 08:35:16;;;;;;;6.15;1.35;;;;;;;;;;5050382;28;20021;-68
2022/07/23 08:37:42;;;;;;;3.00;1.00;;;;;;;;;;5051676;28;20043;-68
2022/07/23 08:40:09;;;;;;;4.00;1.20;;;;;;;;;;5052193;28;20017;-67
2022/07/23 08:42:35;;;;;;;4.32;1.15;;;;;;;;;;5050827;28;20033;-68
2022/07/23 08:45:02;;;;;;;1.83;0.93;;;;;;;;;;5052676;28;20124;-69
2022/07/23 08:47:29;;;;;;;3.85;0.98;;;;;;;;;;5053951;28;20032;-69
2022/07/23 08:49:55;;;;;;;3.08;0.90;;;;;;;;;;5053443;28;20061;-69
2022/07/23 08:52:21;;;;;;;3.35;0.98;;;;;;;;;;5053191;28;20487;-69
2022/07/23 08:54:47;;;;;;;4.15;1.20;;;;;;;;;;5054465;28;20506;-69
2022/07/23 08:57:13;;;;;;;11.60;1.30;;;;;;;;;;5055611;28;20020;-69
2022/07/23 08:59:40;;;;;;;5.07;1.20;;;;;;;;;;5056664;28;20155;-69
2022/07/23 09:02:06;;;;;;;4.90;1.10;;;;;;;;;;5053717;28;20036;-69
2022/07/23 09:04:33;;;;;;;3.00;0.90;;;;;;;;;;5056585;28;20392;-69
2022/07/23 09:06:59;;;;;;;2.28;0.90;;;;;;;;;;5055777;28;20363;-69
2022/07/23 09:09:29;;;;;;;3.22;1.00;;;;;;;;;;5055629;28;20032;-70
2022/07/23 09:12:06;;;;;;;2.70;0.77;;;;;;;;;;5054886;28;20447;-69
2022/07/23 09:14:39;;;;;;;2.38;1.00;;;;;;;;;;5054526;28;20065;-69
2022/07/23 09:17:09;;;;;;;5.88;1.17;;;;;;;;;;5055690;28;20470;-70
2022/07/23 09:19:35;;;;;;;5.45;1.20;;;;;;;;;;5055644;28;20029;-70
2022/07/23 09:22:16;;;;;;;4.93;1.10;;;;;;;;;;5054355;28;20080;-69
2022/07/23 09:25:01;;;;;;;2.15;0.88;;;;;;;;;;5052692;28;20592;-69
2022/07/23 09:27:45;;;;;;;2.78;0.70;;;;;;;;;;5052704;28;20077;-69
2022/07/23 09:30:11;;;;;;;4.80;1.25;;;;;;;;;;5051100;28;20044;-69
2022/07/23 09:32:37;;;;;;;5.05;1.13;;;;;;;;;;5050058;28;20190;-69
2022/07/23 09:35:03;;;;;;;1.63;0.80;;;;;;;;;;5049716;28;20549;-69
2022/07/23 09:37:29;;;;;;;4.82;0.82;;;;;;;;;;5050128;28;20045;-69
2022/07/23 09:40:04;;;;;;;7.28;1.35;;;;;;;;;;5050805;28;20121;-69
2022/07/23 09:42:30;;;;;;;2.80;0.82;;;;;;;;;;5050415;28;20040;-70
2022/07/23 09:44:57;;;;;;;4.80;1.52;;;;;;;;;;5050097;28;20025;-70
2022/07/23 09:47:24;;;;;;;2.83;0.90;;;;;;;;;;5050607;28;20071;-69
2022/07/23 09:50:12;;;;;;;2.88;0.70;;;;;;;;;;5050602;28;20065;-70
2022/07/23 09:52:45;;;;;;;1.55;0.68;;;;;;;;;;5047823;28;20108;-70
2022/07/23 09:55:12;;;;;;;17.55;1.55;;;;;;;;;;5032861;28;20029;-67
2022/07/23 09:57:40;;;;;;;3.25;1.20;;;;;;;;;;5045758;28;20037;-70
2022/07/23 10:00:08;;;;;;;3.17;0.80;;;;;;;;;;5050527;28;20049;-69
2022/07/23 10:02:34;;;;;;;1.83;0.88;;;;;;;;;;5036432;28;20030;-70
2022/07/23 10:05:02;;;;;;;2.13;0.80;;;;;;;;;;5048100;28;20142;-67
2022/07/23 10:07:30;;;;;;;2.60;1.00;;;;;;;;;;5053073;28;20032;-68
2022/07/23 10:09:56;;;;;;;1.77;0.85;;;;;;;;;;5052605;28;20048;-68
2022/07/23 10:15:07;;;;;;;2.65;1.00;;;;;;;;;;5053093;28;20048;-68
2022/07/23 10:17:34;;;;;;;2.28;1.10;;;;;;;;;;5048294;28;20430;-69
2022/07/23 10:20:00;;;;;;;3.72;1.13;;;;;;;;;;5033464;28;20034;-67
2022/07/23 10:22:27;;;;;;;3.58;0.93;;;;;;;;;;5036965;28;20113;-68
2022/07/23 10:25:26;;;;;;;2.40;1.00;;;;;;;;;;5050061;28;20025;-69
2022/07/23 10:28:03;;;;;;;2.30;1.02;;;;;;;;;;5031267;28;20039;-68
2022/07/23 10:30:43;;;;;;;6.57;1.30;;;;;;;;;;5054377;28;20028;-69
2022/07/23 10:33:24;;;;;;;2.63;1.05;;;;;;;;;;5053901;28;20028;-68
2022/07/23 10:35:53;;;;;;;1.73;0.70;;;;;;;;;;5053806;28;20247;-69
2022/07/23 10:38:31;;;;;;;4.50;1.00;;;;;;;;;;5055778;28;20099;-68
2022/07/23 10:40:59;;;;;;;1.98;0.80;;;;;;;;;;5056482;28;20017;-67
2022/07/23 10:43:26;;;;;;;2.30;1.02;;;;;;;;;;5051972;28;20028;-68
2022/07/23 10:45:52;;;;;;;6.32;0.95;;;;;;;;;;5036972;28;20067;-68
2022/07/23 10:48:23;;;;;;;1.98;0.95;;;;;;;;;;5036335;28;20030;-68
2022/07/23 10:51:07;;;;;;;2.30;0.90;;;;;;;;;;5037596;28;20036;-68
2022/07/23 10:53:52;;;;;;;5.68;1.20;;;;;;;;;;5036793;28;20060;-67
2022/07/23 10:56:36;;;;;;;6.75;1.38;;;;;;;;;;5036119;28;20025;-68
2022/07/23 10:59:05;;;;;;;3.40;1.33;;;;;;;;;;5036326;28;20021;-68
2022/07/23 11:01:36;;;;;;;1.83;1.02;;;;;;;;;;5037136;28;20049;-68
2022/07/23 11:04:04;;;;;;;3.00;1.30;;;;;;;;;;5037542;28;20033;-68
2022/07/23 11:06:48;;;;;;;4.47;1.23;;;;;;;;;;5037107;28;20376;-69
2022/07/23 11:09:26;;;;;;;2.80;1.13;;;;;;;;;;5037927;28;20108;-68
2022/07/23 11:12:11;;;;;;;2.25;1.10;;;;;;;;;;5036223;28;20030;-69
2022/07/23 11:14:56;;;;;;;2.38;1.17;;;;;;;;;;5036447;28;20029;-68
2022/07/23 11:17:22;;;;;;;6.47;1.15;;;;;;;;;;5035642;28;20034;-68
2022/07/23 11:20:07;;;;;;;5.93;1.55;;;;;;;;;;5034482;28;20046;-69
2022/07/23 11:22:40;;;;;;;8.45;1.25;;;;;;;;;;5033996;28;20040;-68
2022/07/23 11:25:06;;;;;;;3.90;1.50;;;;;;;;;;5032316;28;20471;-68
2022/07/23 11:27:39;;;;;;;5.90;1.35;;;;;;;;;;5032597;28;20033;-68
2022/07/23 11:30:05;;;;;;;6.68;1.30;;;;;;;;;;5032720;28;20053;-69
2022/07/23 11:32:34;;;;;;;5.18;1.52;;;;;;;;;;5031863;28;20128;-68
2022/07/23 11:35:00;;;;;;;4.68;1.50;;;;;;;;;;5031581;28;20164;-68
2022/07/23 11:37:28;;;;;;;3.10;1.30;;;;;;;;;;5032056;28;20021;-68
2022/07/23 11:39:58;;;;;;;2.85;1.50;;;;;;;;;;5032084;28;20022;-68
2022/07/23 11:42:24;;;;;;;4.55;1.30;;;;;;;;;;5031960;28;20021;-68
2022/07/23 11:44:50;;;;;;;3.55;1.58;;;;;;;;;;5031866;28;20116;-69
2022/07/23 11:47:22;;;;;;;3.17;1.52;;;;;;;;;;5031372;28;20095;-69
2022/07/23 11:49:56;;;;;;;3.53;1.63;;;;;;;;;;5035011;28;20108;-69
2022/07/23 11:52:23;;;;;;;2.25;1.50;;;;;;;;;;5051168;28;20033;-68
2022/07/23 11:54:56;;;;;;;3.83;1.60;;;;;;;;;;5051588;28;20040;-68
2022/07/23 11:57:30;;;;;;;3.47;1.38;;;;;;;;;;5034769;28;20513;-68
2022/07/23 11:59:57;;;;;;;2.63;1.50;;;;;;;;;;5031445;28;20050;-68
2022/07/23 12:02:24;;;;;;;4.88;1.60;;;;;;;;;;5031402;28;20025;-69
2022/07/23 12:04:51;;;;;;;3.25;1.60;;;;;;;;;;5031811;28;20025;-69
2022/07/23 12:07:33;;;;;;;4.80;1.40;;;;;;;;;;5031737;28;20060;-69
2022/07/23 12:10:00;;;;;;;5.15;1.90;;;;;;;;;;5031844;28;20025;-69
2022/07/23 12:12:26;;;;;;;3.65;1.90;;;;;;;;;;5031847;28;20040;-68
2022/07/23 12:14:53;;;;;;;2.70;1.70;;;;;;;;;;5031200;28;20025;-69
2022/07/23 12:17:20;;;;;;;3.78;1.75;;;;;;;;;;5031499;28;20041;-69
2022/07/23 12:19:46;;;;;;;3.17;1.70;;;;;;;;;;5030644;28;20052;-67
2022/07/23 12:22:14;;;;;;;2.83;1.60;;;;;;;;;;5031199;28;20568;-68
2022/07/23 12:25:04;;;;;;;2.65;1.70;;;;;;;;;;5031513;28;20113;-68
2022/07/23 12:27:30;;;;;;;3.08;1.88;;;;;;;;;;5032241;28;20037;-68
2022/07/23 12:29:56;;;;;;;5.18;1.65;;;;;;;;;;5032114;28;20514;-68
2022/07/23 12:32:23;;;;;;;3.05;1.70;;;;;;;;;;5030904;28;20383;-67
2022/07/23 12:35:10;;;;;;;3.80;1.80;;;;;;;;;;5032179;28;20044;-68
2022/07/23 12:37:37;;;;;;;4.50;1.75;;;;;;;;;;5033142;28;20025;-69
2022/07/23 12:40:21;;;;;;;3.05;1.75;;;;;;;;;;5032596;28;20029;-68
2022/07/23 12:42:51;;;;;;;3.42;1.92;;;;;;;;;;5032751;28;20128;-69
2022/07/23 12:45:18;;;;;;;3.53;1.95;;;;;;;;;;5033505;28;20033;-68
2022/07/23 12:48:04;;;;;;;3.55;2.00;;;;;;;;;;5034769;28;20052;-69
2022/07/23 12:50:42;;;;;;;34.33;3.60;;;;;;;;;;5033347;28;20430;-67
2022/07/23 12:53:10;;;;;;;6.07;2.80;;;;;;;;;;5035078;28;20033;-68
2022/07/23 12:55:36;;;;;;;6.18;2.17;;;;;;;;;;5035655;28;20040;-68
2022/07/23 12:58:04;;;;;;;4.40;2.10;;;;;;;;;;5035267;28;20033;-67
2022/07/23 13:00:31;;;;;;;5.95;1.95;;;;;;;;;;5033988;28;20046;-69
2022/07/23 13:02:57;;;;;;;5.15;2.10;;;;;;;;;;5035683;28;20025;-69
2022/07/23 13:05:23;;;;;;;6.00;1.90;;;;;;;;;;5035405;28;20028;-68
2022/07/23 13:07:49;;;;;;;7.25;3.10;;;;;;;;;;5034114;28;20471;-68
2022/07/23 13:10:15;;;;;;;3.58;1.90;;;;;;;;;;5034225;28;20034;-69
2022/07/23 13:12:41;;;;;;;9.02;2.10;;;;;;;;;;5034498;28;20056;-70
2022/07/23 13:15:07;;;;;;;4.05;2.40;;;;;;;;;;5035244;28;20030;-67
2022/07/23 13:17:33;;;;;;;3.83;2.33;;;;;;;;;;5033595;28;20030;-68
2022/07/23 13:19:59;;;;;;;6.45;2.05;;;;;;;;;;5035347;28;20044;-70
2022/07/23 13:22:25;;;;;;;6.22;2.22;;;;;;;;;;5035544;28;20025;-68
2022/07/23 13:24:52;;;;;;;7.00;2.28;;;;;;;;;;5034086;28;20041;-68
2022/07/23 13:27:18;;;;;;;4.93;2.08;;;;;;;;;;5033727;28;20521;-69
2022/07/23 13:29:44;;;;;;;3.42;1.90;;;;;;;;;;5032779;28;20037;-69
2022/07/23 13:32:10;;;;;;;3.67;2.00;;;;;;;;;;5032680;28;20033;-68
2022/07/23 13:34:36;;;;;;;2.95;2.03;;;;;;;;;;5032184;28;20033;-67
2022/07/23 13:37:02;;;;;;;3.38;1.85;;;;;;;;;;5033948;28;20048;-68
2022/07/23 13:39:28;;;;;;;4.82;2.10;;;;;;;;;;5035295;28;20080;-68
2022/07/23 13:41:54;;;;;;;7.00;2.85;;;;;;;;;;5032587;28;20117;-68
2022/07/23 13:44:20;;;;;;;4.55;2.40;;;;;;;;;;5033814;28;20546;-68
2022/07/23 13:46:46;;;;;;;4.88;2.20;;;;;;;;;;5034011;28;20025;-68
2022/07/23 13:49:12;;;;;;;6.63;2.50;;;;;;;;;;5033706;28;20375;-69
2022/07/23 13:51:38;;;;;;;6.05;2.33;;;;;;;;;;5033498;28;20043;-69
2022/07/23 13:54:04;;;;;;;3.88;2.15;;;;;;;;;;5033728;28;20026;-69
2022/07/23 13:56:30;;;;;;;7.72;2.38;;;;;;;;;;5033441;28;20029;-69
2022/07/23 13:58:56;;;;;;;6.78;2.17;;;;;;;;;;5033625;28;20095;-69
2022/07/23 14:01:22;;;;;;;3.88;1.98;;;;;;;;;;5032225;28;20046;-67
2022/07/23 14:03:48;;;;;;;5.88;2.40;;;;;;;;;;5032053;28;20499;-68
2022/07/23 14:06:14;;;;;;;6.80;2.30;;;;;;;;;;5033407;28;20029;-68
2022/07/23 14:08:40;;;;;;;4.53;2.08;;;;;;;;;;5033849;28;20094;-68
2022/07/23 14:11:06;;;;;;;2.90;1.75;;;;;;;;;;5033201;28;20148;-68
2022/07/23 14:13:32;;;;;;;8.02;2.33;;;;;;;;;;5033412;28;20687;-69
2022/07/23 14:15:58;;;;;;;4.10;2.08;;;;;;;;;;5033313;28;20468;-69
2022/07/23 14:18:24;;;;;;;5.97;2.20;;;;;;;;;;5033827;28;20037;-69
2022/07/23 14:20:50;;;;;;;3.55;1.88;;;;;;;;;;5033799;28;20139;-69
2022/07/23 14:23:16;;;;;;;4.22;1.95;;;;;;;;;;5032045;28;20171;-69
2022/07/23 14:25:42;;;;;;;7.38;2.10;;;;;;;;;;5033260;28;20025;-68
2022/07/23 14:28:08;;;;;;;6.95;2.95;;;;;;;;;;5033410;28;20092;-70
2022/07/23 14:30:35;;;;;;;4.80;2.10;;;;;;;;;;5033587;28;20018;-69
2022/07/23 14:33:01;;;;;;;6.90;2.45;;;;;;;;;;5033053;28;20224;-68
2022/07/23 14:35:26;;;;;;;4.90;2.30;;;;;;;;;;5033761;28;20030;-68
2022/07/23 14:37:52;;;;;;;3.83;2.30;;;;;;;;;;5033005;28;20537;-68
2022/07/23 14:40:19;;;;;;;3.30;2.30;;;;;;;;;;5032952;28;20037;-68